sensor_id;sensor_type;location;lat;lon;timestamp;P1;durP1;ratioP1;P2;durP2;ratioP2
15082;SDS011;7640;53.116;6.878;2022-07-10T00:01:05;7.30;;;1.87;;
15082;SDS011;7640;53.116;6.878;2022-07-10T00:03:34;5.83;;;1.37;;
15082;SDS011;7640;53.116;6.878;2022-07-10T00:06:02;4.20;;;1.83;;
15082;SDS011;7640;53.116;6.878;2022-07-10T00:08:30;3.47;;;1.73;;
15082;SDS011;7640;53.116;6.878;2022-07-10T00:10:58;4.37;;;1.23;;
15082;SDS011;7640;53.116;6.878;2022-07-10T00:13:28;9.73;;;2.00;;
15082;SDS011;7640;53.116;6.878;2022-07-10T00:15:56;5.83;;;1.73;;
15082;SDS011;7640;53.116;6.878;2022-07-10T00:18:24;6.50;;;2.00;;
15082;SDS011;7640;53.116;6.878;2022-07-10T00:20:53;6.97;;;2.80;;
15082;SDS011;7640;53.116;6.878;2022-07-10T00:23:21;4.90;;;1.83;;
15082;SDS011;7640;53.116;6.878;2022-07-10T00:25:49;5.87;;;1.80;;
15082;SDS011;7640;53.116;6.878;2022-07-10T00:28:17;6.10;;;2.60;;
15082;SDS011;7640;53.116;6.878;2022-07-10T00:30:47;10.03;;;3.00;;
15082;SDS011;7640;53.116;6.878;2022-07-10T00:33:15;5.90;;;2.03;;
15082;SDS011;7640;53.116;6.878;2022-07-10T00:35:43;7.03;;;3.60;;
15082;SDS011;7640;53.116;6.878;2022-07-10T00:38:11;7.63;;;1.80;;
15082;SDS011;7640;53.116;6.878;2022-07-10T00:40:40;6.33;;;3.03;;
15082;SDS011;7640;53.116;6.878;2022-07-10T00:43:08;6.47;;;1.70;;
15082;SDS011;7640;53.116;6.878;2022-07-10T00:45:36;5.50;;;1.70;;
15082;SDS011;7640;53.116;6.878;2022-07-10T00:48:06;5.03;;;1.50;;
15082;SDS011;7640;53.116;6.878;2022-07-10T00:50:35;6.73;;;1.53;;
15082;SDS011;7640;53.116;6.878;2022-07-10T00:53:03;4.13;;;1.30;;
15082;SDS011;7640;53.116;6.878;2022-07-10T00:55:32;7.57;;;1.60;;
15082;SDS011;7640;53.116;6.878;2022-07-10T00:58:01;7.33;;;2.07;;
15082;SDS011;7640;53.116;6.878;2022-07-10T01:00:32;7.53;;;1.67;;
15082;SDS011;7640;53.116;6.878;2022-07-10T01:03:03;7.50;;;1.97;;
15082;SDS011;7640;53.116;6.878;2022-07-10T01:05:34;8.50;;;1.97;;
15082;SDS011;7640;53.116;6.878;2022-07-10T01:08:02;6.50;;;1.97;;
15082;SDS011;7640;53.116;6.878;2022-07-10T01:10:31;6.97;;;1.63;;
15082;SDS011;7640;53.116;6.878;2022-07-10T01:13:00;6.67;;;1.70;;
15082;SDS011;7640;53.116;6.878;2022-07-10T01:15:29;6.27;;;1.90;;
15082;SDS011;7640;53.116;6.878;2022-07-10T01:17:59;5.43;;;1.60;;
15082;SDS011;7640;53.116;6.878;2022-07-10T01:20:30;9.10;;;1.93;;
15082;SDS011;7640;53.116;6.878;2022-07-10T01:23:01;6.00;;;1.60;;
15082;SDS011;7640;53.116;6.878;2022-07-10T01:25:29;7.87;;;2.23;;
15082;SDS011;7640;53.116;6.878;2022-07-10T01:27:57;5.97;;;2.30;;
15082;SDS011;7640;53.116;6.878;2022-07-10T01:30:26;11.23;;;2.37;;
15082;SDS011;7640;53.116;6.878;2022-07-10T01:32:54;6.47;;;2.90;;
15082;SDS011;7640;53.116;6.878;2022-07-10T01:35:22;5.23;;;2.27;;
15082;SDS011;7640;53.116;6.878;2022-07-10T01:37:51;9.83;;;2.47;;
15082;SDS011;7640;53.116;6.878;2022-07-10T01:40:20;8.87;;;2.73;;
15082;SDS011;7640;53.116;6.878;2022-07-10T01:42:49;6.83;;;2.70;;
15082;SDS011;7640;53.116;6.878;2022-07-10T01:45:17;8.83;;;2.80;;
15082;SDS011;7640;53.116;6.878;2022-07-10T01:47:45;6.83;;;2.97;;
15082;SDS011;7640;53.116;6.878;2022-07-10T01:50:13;5.23;;;2.83;;
15082;SDS011;7640;53.116;6.878;2022-07-10T01:52:41;8.47;;;2.70;;
15082;SDS011;7640;53.116;6.878;2022-07-10T01:55:10;6.00;;;2.17;;
15082;SDS011;7640;53.116;6.878;2022-07-10T01:57:39;10.73;;;2.83;;
15082;SDS011;7640;53.116;6.878;2022-07-10T02:00:08;8.27;;;3.40;;
15082;SDS011;7640;53.116;6.878;2022-07-10T02:02:37;7.97;;;4.57;;
15082;SDS011;7640;53.116;6.878;2022-07-10T02:05:06;8.80;;;3.97;;
15082;SDS011;7640;53.116;6.878;2022-07-10T02:07:34;7.50;;;3.27;;
15082;SDS011;7640;53.116;6.878;2022-07-10T02:10:02;8.53;;;3.00;;
15082;SDS011;7640;53.116;6.878;2022-07-10T02:12:32;6.73;;;2.07;;
15082;SDS011;7640;53.116;6.878;2022-07-10T02:15:05;7.40;;;2.33;;
15082;SDS011;7640;53.116;6.878;2022-07-10T02:17:34;5.87;;;1.93;;
15082;SDS011;7640;53.116;6.878;2022-07-10T02:20:03;6.10;;;2.03;;
15082;SDS011;7640;53.116;6.878;2022-07-10T02:22:32;6.27;;;1.70;;
15082;SDS011;7640;53.116;6.878;2022-07-10T02:25:00;5.27;;;1.70;;
15082;SDS011;7640;53.116;6.878;2022-07-10T02:27:29;5.40;;;1.90;;
15082;SDS011;7640;53.116;6.878;2022-07-10T02:29:57;6.50;;;2.03;;
15082;SDS011;7640;53.116;6.878;2022-07-10T02:32:27;3.33;;;1.33;;
15082;SDS011;7640;53.116;6.878;2022-07-10T02:34:56;5.13;;;1.60;;
15082;SDS011;7640;53.116;6.878;2022-07-10T02:37:24;5.67;;;1.40;;
15082;SDS011;7640;53.116;6.878;2022-07-10T02:39:52;4.67;;;1.87;;
15082;SDS011;7640;53.116;6.878;2022-07-10T02:42:20;5.30;;;1.80;;
15082;SDS011;7640;53.116;6.878;2022-07-10T02:44:48;6.80;;;2.20;;
15082;SDS011;7640;53.116;6.878;2022-07-10T02:47:16;5.77;;;1.70;;
15082;SDS011;7640;53.116;6.878;2022-07-10T02:49:46;6.87;;;1.80;;
15082;SDS011;7640;53.116;6.878;2022-07-10T02:52:14;3.97;;;1.50;;
15082;SDS011;7640;53.116;6.878;2022-07-10T02:54:42;7.00;;;2.00;;
15082;SDS011;7640;53.116;6.878;2022-07-10T02:57:10;5.30;;;1.53;;
15082;SDS011;7640;53.116;6.878;2022-07-10T02:59:39;6.93;;;1.90;;
15082;SDS011;7640;53.116;6.878;2022-07-10T03:02:07;6.70;;;1.90;;
15082;SDS011;7640;53.116;6.878;2022-07-10T03:04:35;8.37;;;1.93;;
15082;SDS011;7640;53.116;6.878;2022-07-10T03:07:05;6.60;;;1.93;;
15082;SDS011;7640;53.116;6.878;2022-07-10T03:09:33;5.80;;;1.60;;
15082;SDS011;7640;53.116;6.878;2022-07-10T03:12:02;4.50;;;1.67;;
15082;SDS011;7640;53.116;6.878;2022-07-10T03:14:30;9.17;;;1.70;;
15082;SDS011;7640;53.116;6.878;2022-07-10T03:16:59;8.77;;;1.90;;
15082;SDS011;7640;53.116;6.878;2022-07-10T03:19:27;5.27;;;1.70;;
15082;SDS011;7640;53.116;6.878;2022-07-10T03:21:55;8.07;;;1.90;;
15082;SDS011;7640;53.116;6.878;2022-07-10T03:24:24;8.30;;;1.60;;
15082;SDS011;7640;53.116;6.878;2022-07-10T03:26:53;3.67;;;1.60;;
15082;SDS011;7640;53.116;6.878;2022-07-10T03:29:21;6.80;;;1.90;;
15082;SDS011;7640;53.116;6.878;2022-07-10T03:31:49;5.33;;;1.70;;
15082;SDS011;7640;53.116;6.878;2022-07-10T03:34:18;5.13;;;1.67;;
15082;SDS011;7640;53.116;6.878;2022-07-10T03:36:46;5.47;;;1.70;;
15082;SDS011;7640;53.116;6.878;2022-07-10T03:39:14;4.60;;;1.40;;
15082;SDS011;7640;53.116;6.878;2022-07-10T03:41:43;9.73;;;2.27;;
15082;SDS011;7640;53.116;6.878;2022-07-10T03:44:12;5.90;;;2.07;;
15082;SDS011;7640;53.116;6.878;2022-07-10T03:46:40;5.80;;;1.73;;
15082;SDS011;7640;53.116;6.878;2022-07-10T03:49:08;6.37;;;1.80;;
15082;SDS011;7640;53.116;6.878;2022-07-10T03:51:36;7.60;;;1.53;;
15082;SDS011;7640;53.116;6.878;2022-07-10T03:54:05;9.03;;;1.57;;
15082;SDS011;7640;53.116;6.878;2022-07-10T03:56:33;4.50;;;2.00;;
15082;SDS011;7640;53.116;6.878;2022-07-10T03:59:20;8.57;;;2.97;;
15082;SDS011;7640;53.116;6.878;2022-07-10T04:01:48;5.13;;;1.50;;
15082;SDS011;7640;53.116;6.878;2022-07-10T04:04:16;6.67;;;1.70;;
15082;SDS011;7640;53.116;6.878;2022-07-10T04:06:44;7.87;;;1.70;;
15082;SDS011;7640;53.116;6.878;2022-07-10T04:09:13;9.60;;;2.10;;
15082;SDS011;7640;53.116;6.878;2022-07-10T04:11:41;7.63;;;1.83;;
15082;SDS011;7640;53.116;6.878;2022-07-10T04:14:09;9.37;;;2.10;;
15082;SDS011;7640;53.116;6.878;2022-07-10T04:16:39;7.30;;;1.67;;
15082;SDS011;7640;53.116;6.878;2022-07-10T04:19:07;6.93;;;1.63;;
15082;SDS011;7640;53.116;6.878;2022-07-10T04:21:35;9.07;;;1.67;;
15082;SDS011;7640;53.116;6.878;2022-07-10T04:24:04;11.13;;;2.00;;
15082;SDS011;7640;53.116;6.878;2022-07-10T04:26:32;5.20;;;1.53;;
15082;SDS011;7640;53.116;6.878;2022-07-10T04:29:00;10.10;;;1.90;;
15082;SDS011;7640;53.116;6.878;2022-07-10T04:31:29;6.27;;;1.63;;
15082;SDS011;7640;53.116;6.878;2022-07-10T04:33:58;5.47;;;1.70;;
15082;SDS011;7640;53.116;6.878;2022-07-10T04:36:26;7.67;;;2.03;;
15082;SDS011;7640;53.116;6.878;2022-07-10T04:38:56;5.30;;;1.73;;
15082;SDS011;7640;53.116;6.878;2022-07-10T04:41:24;10.17;;;2.20;;
15082;SDS011;7640;53.116;6.878;2022-07-10T04:43:53;6.23;;;1.70;;
15082;SDS011;7640;53.116;6.878;2022-07-10T04:46:21;7.63;;;2.00;;
15082;SDS011;7640;53.116;6.878;2022-07-10T04:48:49;5.37;;;1.97;;
15082;SDS011;7640;53.116;6.878;2022-07-10T04:51:19;10.13;;;1.90;;
15082;SDS011;7640;53.116;6.878;2022-07-10T04:53:49;10.60;;;2.63;;
15082;SDS011;7640;53.116;6.878;2022-07-10T04:56:17;6.77;;;2.07;;
15082;SDS011;7640;53.116;6.878;2022-07-10T04:58:45;10.90;;;2.13;;
15082;SDS011;7640;53.116;6.878;2022-07-10T05:01:18;8.77;;;1.80;;
15082;SDS011;7640;53.116;6.878;2022-07-10T05:03:46;7.43;;;1.83;;
15082;SDS011;7640;53.116;6.878;2022-07-10T05:06:15;9.30;;;1.90;;
15082;SDS011;7640;53.116;6.878;2022-07-10T05:08:44;9.67;;;2.50;;
15082;SDS011;7640;53.116;6.878;2022-07-10T05:11:13;7.50;;;2.13;;
15082;SDS011;7640;53.116;6.878;2022-07-10T05:13:41;7.50;;;1.83;;
15082;SDS011;7640;53.116;6.878;2022-07-10T05:16:11;5.33;;;1.90;;
15082;SDS011;7640;53.116;6.878;2022-07-10T05:18:45;8.10;;;1.77;;
15082;SDS011;7640;53.116;6.878;2022-07-10T05:21:14;7.87;;;1.63;;
15082;SDS011;7640;53.116;6.878;2022-07-10T05:23:42;7.33;;;2.10;;
15082;SDS011;7640;53.116;6.878;2022-07-10T05:26:12;5.00;;;1.77;;
15082;SDS011;7640;53.116;6.878;2022-07-10T05:28:40;5.50;;;1.60;;
15082;SDS011;7640;53.116;6.878;2022-07-10T05:31:09;10.63;;;1.83;;
15082;SDS011;7640;53.116;6.878;2022-07-10T05:33:37;9.40;;;1.90;;
15082;SDS011;7640;53.116;6.878;2022-07-10T05:36:06;6.10;;;1.80;;
15082;SDS011;7640;53.116;6.878;2022-07-10T05:38:35;9.53;;;2.10;;
15082;SDS011;7640;53.116;6.878;2022-07-10T05:41:05;8.00;;;2.00;;
15082;SDS011;7640;53.116;6.878;2022-07-10T05:43:34;7.63;;;1.90;;
15082;SDS011;7640;53.116;6.878;2022-07-10T05:46:02;5.63;;;2.00;;
15082;SDS011;7640;53.116;6.878;2022-07-10T05:48:32;7.03;;;1.90;;
15082;SDS011;7640;53.116;6.878;2022-07-10T05:51:01;6.63;;;1.87;;
15082;SDS011;7640;53.116;6.878;2022-07-10T05:53:49;3.67;;;1.80;;
15082;SDS011;7640;53.116;6.878;2022-07-10T05:56:19;5.50;;;1.80;;
15082;SDS011;7640;53.116;6.878;2022-07-10T05:58:47;5.40;;;1.33;;
15082;SDS011;7640;53.116;6.878;2022-07-10T06:01:16;9.07;;;2.13;;
15082;SDS011;7640;53.116;6.878;2022-07-10T06:03:44;5.37;;;1.60;;
15082;SDS011;7640;53.116;6.878;2022-07-10T06:06:12;4.60;;;1.87;;
15082;SDS011;7640;53.116;6.878;2022-07-10T06:08:42;4.17;;;1.50;;
15082;SDS011;7640;53.116;6.878;2022-07-10T06:11:10;3.87;;;2.10;;
15082;SDS011;7640;53.116;6.878;2022-07-10T06:13:40;6.03;;;1.70;;
15082;SDS011;7640;53.116;6.878;2022-07-10T06:16:09;5.10;;;1.87;;
15082;SDS011;7640;53.116;6.878;2022-07-10T06:18:37;6.33;;;1.67;;
15082;SDS011;7640;53.116;6.878;2022-07-10T06:21:06;6.23;;;1.63;;
15082;SDS011;7640;53.116;6.878;2022-07-10T06:23:34;6.30;;;2.33;;
15082;SDS011;7640;53.116;6.878;2022-07-10T06:26:02;7.07;;;1.80;;
15082;SDS011;7640;53.116;6.878;2022-07-10T06:28:33;4.60;;;1.63;;
15082;SDS011;7640;53.116;6.878;2022-07-10T06:31:03;5.57;;;1.63;;
15082;SDS011;7640;53.116;6.878;2022-07-10T06:33:32;7.40;;;1.53;;
15082;SDS011;7640;53.116;6.878;2022-07-10T06:36:02;5.07;;;1.73;;
15082;SDS011;7640;53.116;6.878;2022-07-10T06:38:31;9.17;;;1.70;;
15082;SDS011;7640;53.116;6.878;2022-07-10T06:40:59;5.87;;;1.90;;
15082;SDS011;7640;53.116;6.878;2022-07-10T06:43:27;4.87;;;1.67;;
15082;SDS011;7640;53.116;6.878;2022-07-10T06:45:56;5.83;;;1.57;;
15082;SDS011;7640;53.116;6.878;2022-07-10T06:48:26;6.23;;;1.40;;
15082;SDS011;7640;53.116;6.878;2022-07-10T06:50:54;7.23;;;1.80;;
15082;SDS011;7640;53.116;6.878;2022-07-10T06:53:22;4.20;;;1.60;;
15082;SDS011;7640;53.116;6.878;2022-07-10T06:55:53;2.90;;;1.33;;
15082;SDS011;7640;53.116;6.878;2022-07-10T06:58:22;6.53;;;1.73;;
15082;SDS011;7640;53.116;6.878;2022-07-10T07:00:50;4.83;;;1.53;;
15082;SDS011;7640;53.116;6.878;2022-07-10T07:03:19;4.10;;;1.40;;
15082;SDS011;7640;53.116;6.878;2022-07-10T07:05:48;6.63;;;1.80;;
15082;SDS011;7640;53.116;6.878;2022-07-10T07:08:16;5.20;;;1.60;;
15082;SDS011;7640;53.116;6.878;2022-07-10T07:10:45;5.73;;;1.70;;
15082;SDS011;7640;53.116;6.878;2022-07-10T07:13:13;6.80;;;1.73;;
15082;SDS011;7640;53.116;6.878;2022-07-10T07:15:41;7.03;;;1.30;;
15082;SDS011;7640;53.116;6.878;2022-07-10T07:18:16;7.93;;;1.70;;
15082;SDS011;7640;53.116;6.878;2022-07-10T07:20:49;4.77;;;1.67;;
15082;SDS011;7640;53.116;6.878;2022-07-10T07:23:34;4.60;;;1.77;;
15082;SDS011;7640;53.116;6.878;2022-07-10T07:26:02;5.60;;;1.87;;
15082;SDS011;7640;53.116;6.878;2022-07-10T07:28:31;6.30;;;2.00;;
15082;SDS011;7640;53.116;6.878;2022-07-10T07:30:59;4.90;;;1.37;;
15082;SDS011;7640;53.116;6.878;2022-07-10T07:33:28;4.80;;;1.27;;
15082;SDS011;7640;53.116;6.878;2022-07-10T07:35:58;7.50;;;1.60;;
15082;SDS011;7640;53.116;6.878;2022-07-10T07:38:26;7.20;;;1.57;;
15082;SDS011;7640;53.116;6.878;2022-07-10T07:40:54;4.17;;;1.20;;
15082;SDS011;7640;53.116;6.878;2022-07-10T07:43:22;4.90;;;1.20;;
15082;SDS011;7640;53.116;6.878;2022-07-10T07:45:51;4.20;;;1.20;;
15082;SDS011;7640;53.116;6.878;2022-07-10T07:48:19;4.00;;;1.30;;
15082;SDS011;7640;53.116;6.878;2022-07-10T07:50:47;3.30;;;1.13;;
15082;SDS011;7640;53.116;6.878;2022-07-10T07:53:17;4.90;;;1.30;;
15082;SDS011;7640;53.116;6.878;2022-07-10T07:55:45;4.43;;;1.37;;
15082;SDS011;7640;53.116;6.878;2022-07-10T07:58:13;3.87;;;1.07;;
15082;SDS011;7640;53.116;6.878;2022-07-10T08:00:41;6.23;;;1.40;;
15082;SDS011;7640;53.116;6.878;2022-07-10T08:03:09;2.97;;;1.20;;
15082;SDS011;7640;53.116;6.878;2022-07-10T08:05:38;4.13;;;1.00;;
15082;SDS011;7640;53.116;6.878;2022-07-10T08:08:06;3.70;;;0.83;;
15082;SDS011;7640;53.116;6.878;2022-07-10T08:10:37;4.50;;;1.20;;
15082;SDS011;7640;53.116;6.878;2022-07-10T08:13:10;4.17;;;1.00;;
15082;SDS011;7640;53.116;6.878;2022-07-10T08:15:39;6.43;;;1.23;;
15082;SDS011;7640;53.116;6.878;2022-07-10T08:18:07;3.13;;;0.90;;
15082;SDS011;7640;53.116;6.878;2022-07-10T08:20:35;2.83;;;1.00;;
15082;SDS011;7640;53.116;6.878;2022-07-10T08:23:04;4.13;;;1.00;;
15082;SDS011;7640;53.116;6.878;2022-07-10T08:25:32;4.00;;;1.10;;
15082;SDS011;7640;53.116;6.878;2022-07-10T08:28:03;6.43;;;1.10;;
15082;SDS011;7640;53.116;6.878;2022-07-10T08:30:34;3.03;;;1.00;;
15082;SDS011;7640;53.116;6.878;2022-07-10T08:33:02;3.20;;;1.20;;
15082;SDS011;7640;53.116;6.878;2022-07-10T08:35:30;4.53;;;1.13;;
15082;SDS011;7640;53.116;6.878;2022-07-10T08:37:59;2.97;;;0.90;;
15082;SDS011;7640;53.116;6.878;2022-07-10T08:40:29;6.03;;;1.27;;
15082;SDS011;7640;53.116;6.878;2022-07-10T08:43:04;3.20;;;1.10;;
15082;SDS011;7640;53.116;6.878;2022-07-10T08:45:33;3.37;;;1.10;;
15082;SDS011;7640;53.116;6.878;2022-07-10T08:48:03;3.77;;;1.50;;
15082;SDS011;7640;53.116;6.878;2022-07-10T08:50:33;3.87;;;1.00;;
15082;SDS011;7640;53.116;6.878;2022-07-10T08:53:07;3.50;;;1.20;;
15082;SDS011;7640;53.116;6.878;2022-07-10T08:55:37;2.47;;;1.00;;
15082;SDS011;7640;53.116;6.878;2022-07-10T08:58:06;2.10;;;1.07;;
15082;SDS011;7640;53.116;6.878;2022-07-10T09:00:36;1.30;;;0.90;;
15082;SDS011;7640;53.116;6.878;2022-07-10T09:03:04;1.87;;;1.10;;
15082;SDS011;7640;53.116;6.878;2022-07-10T09:05:32;4.43;;;1.20;;
15082;SDS011;7640;53.116;6.878;2022-07-10T09:08:01;1.83;;;1.10;;
15082;SDS011;7640;53.116;6.878;2022-07-10T09:10:30;3.20;;;1.10;;
15082;SDS011;7640;53.116;6.878;2022-07-10T09:12:59;5.10;;;1.33;;
15082;SDS011;7640;53.116;6.878;2022-07-10T09:15:31;3.73;;;1.10;;
15082;SDS011;7640;53.116;6.878;2022-07-10T09:18:00;2.20;;;1.10;;
15082;SDS011;7640;53.116;6.878;2022-07-10T09:20:32;2.40;;;0.90;;
15082;SDS011;7640;53.116;6.878;2022-07-10T09:23:09;4.07;;;1.00;;
15082;SDS011;7640;53.116;6.878;2022-07-10T09:25:44;1.83;;;0.60;;
15082;SDS011;7640;53.116;6.878;2022-07-10T09:28:16;3.00;;;0.73;;
15082;SDS011;7640;53.116;6.878;2022-07-10T09:30:47;3.13;;;0.80;;
15082;SDS011;7640;53.116;6.878;2022-07-10T09:33:17;2.53;;;0.67;;
15082;SDS011;7640;53.116;6.878;2022-07-10T09:35:55;1.20;;;0.73;;
15082;SDS011;7640;53.116;6.878;2022-07-10T09:38:49;1.20;;;0.50;;
15082;SDS011;7640;53.116;6.878;2022-07-10T09:41:21;2.70;;;0.80;;
15082;SDS011;7640;53.116;6.878;2022-07-10T09:43:53;3.60;;;0.90;;
15082;SDS011;7640;53.116;6.878;2022-07-10T09:46:25;2.30;;;0.63;;
15082;SDS011;7640;53.116;6.878;2022-07-10T09:49:02;1.27;;;0.73;;
15082;SDS011;7640;53.116;6.878;2022-07-10T09:51:33;2.30;;;0.70;;
15082;SDS011;7640;53.116;6.878;2022-07-10T09:54:12;1.47;;;0.70;;
15082;SDS011;7640;53.116;6.878;2022-07-10T09:56:41;2.47;;;0.80;;
15082;SDS011;7640;53.116;6.878;2022-07-10T09:59:11;1.33;;;0.60;;
15082;SDS011;7640;53.116;6.878;2022-07-10T10:01:43;1.97;;;0.80;;
15082;SDS011;7640;53.116;6.878;2022-07-10T10:04:14;2.33;;;0.70;;
15082;SDS011;7640;53.116;6.878;2022-07-10T10:06:45;3.30;;;0.83;;
15082;SDS011;7640;53.116;6.878;2022-07-10T10:09:19;3.93;;;0.87;;
15082;SDS011;7640;53.116;6.878;2022-07-10T10:11:53;0.97;;;0.60;;
15082;SDS011;7640;53.116;6.878;2022-07-10T10:14:27;4.13;;;0.80;;
15082;SDS011;7640;53.116;6.878;2022-07-10T10:16:58;0.90;;;0.67;;
15082;SDS011;7640;53.116;6.878;2022-07-10T10:19:28;1.97;;;0.90;;
15082;SDS011;7640;53.116;6.878;2022-07-10T10:22:15;4.00;;;0.90;;
15082;SDS011;7640;53.116;6.878;2022-07-10T10:24:46;2.97;;;0.80;;
15082;SDS011;7640;53.116;6.878;2022-07-10T10:27:15;2.43;;;0.90;;
15082;SDS011;7640;53.116;6.878;2022-07-10T10:29:44;1.60;;;0.70;;
15082;SDS011;7640;53.116;6.878;2022-07-10T10:32:16;4.70;;;0.90;;
15082;SDS011;7640;53.116;6.878;2022-07-10T10:34:45;1.53;;;0.90;;
15082;SDS011;7640;53.116;6.878;2022-07-10T10:37:28;1.70;;;0.73;;
15082;SDS011;7640;53.116;6.878;2022-07-10T10:40:04;3.93;;;0.83;;
15082;SDS011;7640;53.116;6.878;2022-07-10T10:42:35;4.30;;;0.97;;
15082;SDS011;7640;53.116;6.878;2022-07-10T10:45:24;1.37;;;0.70;;
15082;SDS011;7640;53.116;6.878;2022-07-10T10:47:58;2.70;;;1.10;;
15082;SDS011;7640;53.116;6.878;2022-07-10T10:50:49;3.87;;;1.23;;
15082;SDS011;7640;53.116;6.878;2022-07-10T10:53:19;2.57;;;1.20;;
15082;SDS011;7640;53.116;6.878;2022-07-10T10:58:52;2.63;;;1.20;;
15082;SDS011;7640;53.116;6.878;2022-07-10T11:01:24;1.30;;;1.10;;
15082;SDS011;7640;53.116;6.878;2022-07-10T11:04:15;2.17;;;1.20;;
15082;SDS011;7640;53.116;6.878;2022-07-10T11:06:46;2.87;;;1.20;;
15082;SDS011;7640;53.116;6.878;2022-07-10T11:09:23;1.57;;;1.30;;
15082;SDS011;7640;53.116;6.878;2022-07-10T11:12:00;2.47;;;1.50;;
15082;SDS011;7640;53.116;6.878;2022-07-10T11:14:31;2.90;;;1.43;;
15082;SDS011;7640;53.116;6.878;2022-07-10T11:17:03;1.90;;;1.40;;
15082;SDS011;7640;53.116;6.878;2022-07-10T11:19:33;3.33;;;1.50;;
15082;SDS011;7640;53.116;6.878;2022-07-10T11:22:07;4.63;;;2.20;;
15082;SDS011;7640;53.116;6.878;2022-07-10T11:25:03;2.37;;;1.70;;
15082;SDS011;7640;53.116;6.878;2022-07-10T11:27:52;3.60;;;2.10;;
15082;SDS011;7640;53.116;6.878;2022-07-10T11:30:44;4.47;;;1.97;;
15082;SDS011;7640;53.116;6.878;2022-07-10T11:33:14;4.67;;;2.17;;
15082;SDS011;7640;53.116;6.878;2022-07-10T11:35:48;4.40;;;2.27;;
15082;SDS011;7640;53.116;6.878;2022-07-10T11:38:18;4.87;;;2.10;;
15082;SDS011;7640;53.116;6.878;2022-07-10T11:40:48;6.40;;;2.23;;
15082;SDS011;7640;53.116;6.878;2022-07-10T11:43:19;4.67;;;2.70;;
15082;SDS011;7640;53.116;6.878;2022-07-10T11:45:50;5.40;;;2.07;;
15082;SDS011;7640;53.116;6.878;2022-07-10T11:48:20;5.00;;;2.37;;
15082;SDS011;7640;53.116;6.878;2022-07-10T11:50:52;10.20;;;2.57;;
15082;SDS011;7640;53.116;6.878;2022-07-10T11:53:23;4.97;;;2.40;;
15082;SDS011;7640;53.116;6.878;2022-07-10T11:55:52;5.50;;;2.20;;
15082;SDS011;7640;53.116;6.878;2022-07-10T11:58:21;5.40;;;2.47;;
15082;SDS011;7640;53.116;6.878;2022-07-10T12:00:59;9.23;;;2.37;;
15082;SDS011;7640;53.116;6.878;2022-07-10T12:03:30;4.27;;;1.90;;
15082;SDS011;7640;53.116;6.878;2022-07-10T12:06:04;5.10;;;2.30;;
15082;SDS011;7640;53.116;6.878;2022-07-10T12:08:42;6.13;;;2.30;;
15082;SDS011;7640;53.116;6.878;2022-07-10T12:11:12;4.67;;;2.10;;
15082;SDS011;7640;53.116;6.878;2022-07-10T12:13:42;6.03;;;2.30;;
15082;SDS011;7640;53.116;6.878;2022-07-10T12:16:10;5.47;;;2.30;;
15082;SDS011;7640;53.116;6.878;2022-07-10T12:18:39;4.07;;;2.33;;
15082;SDS011;7640;53.116;6.878;2022-07-10T12:21:12;5.60;;;2.37;;
15082;SDS011;7640;53.116;6.878;2022-07-10T12:23:42;5.40;;;2.63;;
15082;SDS011;7640;53.116;6.878;2022-07-10T12:26:15;3.93;;;2.30;;
15082;SDS011;7640;53.116;6.878;2022-07-10T12:28:49;6.23;;;2.60;;
15082;SDS011;7640;53.116;6.878;2022-07-10T12:31:21;10.10;;;3.10;;
15082;SDS011;7640;53.116;6.878;2022-07-10T12:33:51;6.10;;;2.43;;
15082;SDS011;7640;53.116;6.878;2022-07-10T12:36:22;6.87;;;3.10;;
15082;SDS011;7640;53.116;6.878;2022-07-10T12:38:52;5.50;;;2.20;;
15082;SDS011;7640;53.116;6.878;2022-07-10T12:41:24;5.00;;;2.20;;
15082;SDS011;7640;53.116;6.878;2022-07-10T12:43:53;4.83;;;1.60;;
15082;SDS011;7640;53.116;6.878;2022-07-10T12:46:22;3.93;;;1.93;;
15082;SDS011;7640;53.116;6.878;2022-07-10T12:49:01;5.80;;;2.10;;
15082;SDS011;7640;53.116;6.878;2022-07-10T12:51:41;3.43;;;1.60;;
15082;SDS011;7640;53.116;6.878;2022-07-10T12:54:35;4.83;;;1.83;;
15082;SDS011;7640;53.116;6.878;2022-07-10T12:57:05;2.50;;;2.03;;
15082;SDS011;7640;53.116;6.878;2022-07-10T12:59:34;5.43;;;1.80;;
15082;SDS011;7640;53.116;6.878;2022-07-10T13:02:16;3.67;;;1.60;;
15082;SDS011;7640;53.116;6.878;2022-07-10T13:04:52;3.07;;;1.50;;
15082;SDS011;7640;53.116;6.878;2022-07-10T13:07:29;3.47;;;1.63;;
15082;SDS011;7640;53.116;6.878;2022-07-10T13:09:58;3.67;;;1.50;;
15082;SDS011;7640;53.116;6.878;2022-07-10T13:12:30;3.87;;;1.70;;
15082;SDS011;7640;53.116;6.878;2022-07-10T13:14:58;6.23;;;2.17;;
15082;SDS011;7640;53.116;6.878;2022-07-10T13:17:27;5.00;;;1.70;;
15082;SDS011;7640;53.116;6.878;2022-07-10T13:19:55;3.10;;;1.60;;
15082;SDS011;7640;53.116;6.878;2022-07-10T13:22:24;3.37;;;1.60;;
15082;SDS011;7640;53.116;6.878;2022-07-10T13:24:53;5.77;;;1.53;;
15082;SDS011;7640;53.116;6.878;2022-07-10T13:27:21;3.40;;;1.50;;
15082;SDS011;7640;53.116;6.878;2022-07-10T13:29:50;4.10;;;1.70;;
15082;SDS011;7640;53.116;6.878;2022-07-10T13:32:18;7.37;;;1.87;;
15082;SDS011;7640;53.116;6.878;2022-07-10T13:34:53;4.43;;;1.70;;
15082;SDS011;7640;53.116;6.878;2022-07-10T13:37:21;4.30;;;1.90;;
15082;SDS011;7640;53.116;6.878;2022-07-10T13:39:49;4.03;;;1.70;;
15082;SDS011;7640;53.116;6.878;2022-07-10T13:42:19;3.37;;;1.73;;
15082;SDS011;7640;53.116;6.878;2022-07-10T13:44:47;3.47;;;1.60;;
15082;SDS011;7640;53.116;6.878;2022-07-10T13:47:15;1.73;;;1.50;;
15082;SDS011;7640;53.116;6.878;2022-07-10T13:49:43;3.00;;;1.53;;
15082;SDS011;7640;53.116;6.878;2022-07-10T13:52:11;3.83;;;1.97;;
15082;SDS011;7640;53.116;6.878;2022-07-10T13:54:40;2.43;;;1.70;;
15082;SDS011;7640;53.116;6.878;2022-07-10T13:57:08;4.57;;;1.97;;
15082;SDS011;7640;53.116;6.878;2022-07-10T13:59:41;2.33;;;1.73;;
15082;SDS011;7640;53.116;6.878;2022-07-10T14:02:11;3.00;;;1.73;;
15082;SDS011;7640;53.116;6.878;2022-07-10T14:04:42;2.60;;;1.50;;
15082;SDS011;7640;53.116;6.878;2022-07-10T14:07:10;2.67;;;1.30;;
15082;SDS011;7640;53.116;6.878;2022-07-10T14:09:38;2.87;;;1.50;;
15082;SDS011;7640;53.116;6.878;2022-07-10T14:12:07;2.70;;;1.30;;
15082;SDS011;7640;53.116;6.878;2022-07-10T14:14:35;5.30;;;2.10;;
15082;SDS011;7640;53.116;6.878;2022-07-10T14:17:05;3.60;;;1.77;;
15082;SDS011;7640;53.116;6.878;2022-07-10T14:19:33;2.30;;;1.50;;
15082;SDS011;7640;53.116;6.878;2022-07-10T14:22:01;2.70;;;1.50;;
15082;SDS011;7640;53.116;6.878;2022-07-10T14:24:30;2.97;;;1.63;;
15082;SDS011;7640;53.116;6.878;2022-07-10T14:27:05;3.73;;;1.60;;
15082;SDS011;7640;53.116;6.878;2022-07-10T14:29:33;4.13;;;1.60;;
15082;SDS011;7640;53.116;6.878;2022-07-10T14:32:02;4.23;;;2.33;;
15082;SDS011;7640;53.116;6.878;2022-07-10T14:34:32;2.73;;;1.60;;
15082;SDS011;7640;53.116;6.878;2022-07-10T14:37:00;4.03;;;1.80;;
15082;SDS011;7640;53.116;6.878;2022-07-10T14:39:29;5.50;;;2.17;;
15082;SDS011;7640;53.116;6.878;2022-07-10T14:41:57;4.00;;;2.00;;
15082;SDS011;7640;53.116;6.878;2022-07-10T14:44:26;3.07;;;2.10;;
15082;SDS011;7640;53.116;6.878;2022-07-10T14:47:13;4.10;;;1.90;;
15082;SDS011;7640;53.116;6.878;2022-07-10T14:49:49;4.40;;;2.47;;
15082;SDS011;7640;53.116;6.878;2022-07-10T14:52:26;7.73;;;2.00;;
15082;SDS011;7640;53.116;6.878;2022-07-10T14:54:59;2.97;;;1.93;;
15082;SDS011;7640;53.116;6.878;2022-07-10T14:57:35;4.27;;;2.37;;
15082;SDS011;7640;53.116;6.878;2022-07-10T15:00:07;4.17;;;2.00;;
15082;SDS011;7640;53.116;6.878;2022-07-10T15:02:52;5.43;;;2.30;;
15082;SDS011;7640;53.116;6.878;2022-07-10T15:05:30;5.87;;;1.77;;
15082;SDS011;7640;53.116;6.878;2022-07-10T15:08:14;3.80;;;1.63;;
15082;SDS011;7640;53.116;6.878;2022-07-10T15:10:48;3.93;;;1.87;;
15082;SDS011;7640;53.116;6.878;2022-07-10T15:13:32;3.27;;;1.70;;
15082;SDS011;7640;53.116;6.878;2022-07-10T15:16:01;5.47;;;1.80;;
15082;SDS011;7640;53.116;6.878;2022-07-10T15:19:03;3.37;;;1.80;;
15082;SDS011;7640;53.116;6.878;2022-07-10T15:21:33;6.63;;;1.97;;
15082;SDS011;7640;53.116;6.878;2022-07-10T15:24:02;4.50;;;1.80;;